Sagittarian — WCY5210 — position and weather

sailwx.info

Track history (hours):
 
Tides and Currents Weather Stations Pressure Air Temp Water Temp Dewpoint Dewpoint Depression Visibility Wind Speed Wind Dir Waves Ship Positions

Sagittarian

Owner: TAURUS MARINE, SAN FRANCISCO, CA. More information available from US FCC via Universal Licensing System and Coast Guard Vessel Documentation Center.

Last reported at 2016-Feb-06 01:33 UTC. Time now 2016-Feb-07 01:30 UTC.
Position N 37°46' W 122°23'.

; draft 3 m.

Type: Towing. MMSI: 366969510.

Date/timePositionNaut miles runAvg speedWind from/ knotsBaromVisibWave heightAir tempDewpointWater temp
2016-Feb-06 01:33N 37°46' W 122°23'7 7.1
2016-Feb-06 00:33N 37°54' W 122°24'2 2.2
2016-Feb-05 23:33N 37°55' W 122°22'0 0.0
2016-Feb-05 22:33N 37°55' W 122°22'0 0.0
2016-Feb-05 21:33N 37°55' W 122°22'0 0.0
2016-Feb-05 20:33N 37°55' W 122°22'0 0.0
2016-Feb-05 19:33N 37°55' W 122°22'0 0.4
2016-Feb-05 18:33N 37°55' W 122°22'0 0.0
2016-Feb-05 17:33N 37°55' W 122°22'0 0.0
2016-Feb-05 16:33N 37°55' W 122°22'0 0.0
2016-Feb-05 15:33N 37°55' W 122°22'0 0.0
2016-Feb-05 14:33N 37°55' W 122°22'1 0.6
2016-Feb-05 13:33N 37°54' W 122°22'5 5.5
2016-Feb-05 12:33N 37°49' W 122°23'3 0.1
2016-Feb-04 16:33N 37°46' W 122°23'1 1.4
2016-Feb-04 15:33N 37°46' W 122°21'0 0.0
2016-Feb-04 14:33N 37°46' W 122°21'0 0.0
2016-Feb-04 13:33N 37°46' W 122°21'0 0.0
2016-Feb-04 12:33N 37°46' W 122°21'0 0.0
2016-Feb-04 11:33N 37°46' W 122°21'0 0.2
2016-Feb-04 10:33N 37°46' W 122°21'0 0.1
2016-Feb-04 09:33N 37°46' W 122°22'0 0.0
2016-Feb-04 08:33N 37°46' W 122°22'0 0.0
2016-Feb-04 07:33N 37°46' W 122°22'0 0.2
2016-Feb-04 06:33N 37°46' W 122°22'0 0.1
2016-Feb-04 05:33N 37°46' W 122°21'0 0.0
2016-Feb-04 04:33N 37°46' W 122°21'0 0.0
2016-Feb-04 03:33N 37°46' W 122°21'0 0.0
2016-Feb-04 02:33N 37°46' W 122°21'1 1.5
2016-Feb-04 01:33N 37°46' W 122°23'0 0.0
2016-Feb-04 00:33N 37°46' W 122°23'0 0.0
2016-Feb-02 16:26N 37°46' W 122°23'2 2.6
2016-Feb-02 15:33N 37°46' W 122°20'0 0.3
2016-Feb-02 14:33N 37°45' W 122°20'0 0.1
2016-Feb-02 13:33N 37°45' W 122°20'0 0.1
2016-Feb-02 12:33N 37°45' W 122°20'0 0.0
2016-Feb-02 11:33N 37°45' W 122°20'0 0.0
2016-Feb-02 10:34N 37°45' W 122°20'0 0.0
2016-Feb-02 09:33N 37°45' W 122°20'0 0.2
2016-Feb-02 08:33N 37°46' W 122°20'2 2.4
2016-Feb-02 07:33N 37°46' W 122°23'0 0.0
2016-Feb-01 23:24N 37°46' W 122°23'5 6.2
2016-Feb-01 22:33N 37°49' W 122°29'1 1.0
2016-Feb-01 21:33N 37°49' W 122°30'7 7.1
2016-Feb-01 20:33N 37°54' W 122°25'1 0.8
2016-Feb-01 19:33N 37°55' W 122°25'9 8.8
2016-Feb-01 18:33N 37°47' W 122°23'0 0.0
2016-Feb-01 09:32N 37°46' W 122°23'8 8.3
2016-Feb-01 08:33N 37°55' W 122°25'1 1.2
2016-Feb-01 07:33N 37°55' W 122°26'6 5.8
2016-Feb-01 06:32N 38°01' W 122°24'12 2.9
2016-Feb-01 02:23N 38°02' W 122°09'0 0.0
2016-Jan-31 09:29N 38°02' W 122°08'2 1.8
2016-Jan-31 08:32N 38°03' W 122°10'2 0.2
2016-Jan-30 23:23N 38°04' W 122°13'5 6.3
2016-Jan-30 22:33N 38°03' W 122°19'6 6.4
2016-Jan-30 21:33N 37°59' W 122°26'5 5.2
2016-Jan-30 20:33N 37°54' W 122°22'4 3.7
2016-Jan-30 19:33N 37°56' W 122°26'1111.0
2016-Jan-30 18:33N 38°04' W 122°16'1 1.2
2016-Jan-30 17:33N 38°03' W 122°17'3 3.4
2016-Jan-30 16:33N 38°02' W 122°21'1 0.0
2016-Jan-29 17:33N 38°03' W 122°20'8 8.0
2016-Jan-29 16:33N 37°56' W 122°25'2 1.8
2016-Jan-29 15:33N 37°54' W 122°24'7 7.1
2016-Jan-29 14:32N 38°01' W 122°22'9 0.6
2016-Jan-28 23:25N 38°03' W 122°11'5 1.2
2016-Jan-28 19:29N 38°06' W 122°15'0 0.0
2016-Jan-28 18:33N 38°06' W 122°15'8 1.9
2016-Jan-28 14:11N 38°03' W 122°05'6 2.9
2016-Jan-28 12:17N 38°04' W 122°12'3 0.1
2016-Jan-27 18:29N 38°03' W 122°16'6 6.2
2016-Jan-27 17:29N 38°02' W 122°08'3 3.4
2016-Jan-27 16:33N 38°03' W 122°12'  
Track history (hours):
 
Tides and Currents Weather Stations Pressure Air Temp Water Temp Dewpoint Dewpoint Depression Visibility Wind Speed Wind Dir Waves Ship Positions

Sagittarian

Owner: TAURUS MARINE, SAN FRANCISCO, CA. More information available from US FCC via Universal Licensing System and Coast Guard Vessel Documentation Center.

Last reported at 2016-Feb-06 01:33 UTC. Time now 2016-Feb-07 01:30 UTC.
Position N 37°46' W 122°23'.

; draft 3 m.

Type: Towing. MMSI: 366969510.

Date/timePositionNaut miles runAvg speedWind from/ knotsBaromVisibWave heightAir tempDewpointWater temp
2016-Feb-06 01:33N 37°46' W 122°23'7 7.1
2016-Feb-06 00:33N 37°54' W 122°24'2 2.2
2016-Feb-05 23:33N 37°55' W 122°22'0 0.0
2016-Feb-05 22:33N 37°55' W 122°22'0 0.0
2016-Feb-05 21:33N 37°55' W 122°22'0 0.0
2016-Feb-05 20:33N 37°55' W 122°22'0 0.0
2016-Feb-05 19:33N 37°55' W 122°22'0 0.4
2016-Feb-05 18:33N 37°55' W 122°22'0 0.0
2016-Feb-05 17:33N 37°55' W 122°22'0 0.0
2016-Feb-05 16:33N 37°55' W 122°22'0 0.0
2016-Feb-05 15:33N 37°55' W 122°22'0 0.0
2016-Feb-05 14:33N 37°55' W 122°22'1 0.6
2016-Feb-05 13:33N 37°54' W 122°22'5 5.5
2016-Feb-05 12:33N 37°49' W 122°23'3 0.1
2016-Feb-04 16:33N 37°46' W 122°23'1 1.4
2016-Feb-04 15:33N 37°46' W 122°21'0 0.0
2016-Feb-04 14:33N 37°46' W 122°21'0 0.0
2016-Feb-04 13:33N 37°46' W 122°21'0 0.0
2016-Feb-04 12:33N 37°46' W 122°21'0 0.0
2016-Feb-04 11:33N 37°46' W 122°21'0 0.2
2016-Feb-04 10:33N 37°46' W 122°21'0 0.1
2016-Feb-04 09:33N 37°46' W 122°22'0 0.0
2016-Feb-04 08:33N 37°46' W 122°22'0 0.0
2016-Feb-04 07:33N 37°46' W 122°22'0 0.2
2016-Feb-04 06:33N 37°46' W 122°22'0 0.1
2016-Feb-04 05:33N 37°46' W 122°21'0 0.0
2016-Feb-04 04:33N 37°46' W 122°21'0 0.0
2016-Feb-04 03:33N 37°46' W 122°21'0 0.0
2016-Feb-04 02:33N 37°46' W 122°21'1 1.5
2016-Feb-04 01:33N 37°46' W 122°23'0 0.0
2016-Feb-04 00:33N 37°46' W 122°23'0 0.0
2016-Feb-02 16:26N 37°46' W 122°23'2 2.6
2016-Feb-02 15:33N 37°46' W 122°20'0 0.3
2016-Feb-02 14:33N 37°45' W 122°20'0 0.1
2016-Feb-02 13:33N 37°45' W 122°20'0 0.1
2016-Feb-02 12:33N 37°45' W 122°20'0 0.0
2016-Feb-02 11:33N 37°45' W 122°20'0 0.0
2016-Feb-02 10:34N 37°45' W 122°20'0 0.0
2016-Feb-02 09:33N 37°45' W 122°20'0 0.2
2016-Feb-02 08:33N 37°46' W 122°20'2 2.4
2016-Feb-02 07:33N 37°46' W 122°23'0 0.0
2016-Feb-01 23:24N 37°46' W 122°23'5 6.2
2016-Feb-01 22:33N 37°49' W 122°29'1 1.0
2016-Feb-01 21:33N 37°49' W 122°30'7 7.1
2016-Feb-01 20:33N 37°54' W 122°25'1 0.8
2016-Feb-01 19:33N 37°55' W 122°25'9 8.8
2016-Feb-01 18:33N 37°47' W 122°23'0 0.0
2016-Feb-01 09:32N 37°46' W 122°23'8 8.3
2016-Feb-01 08:33N 37°55' W 122°25'1 1.2
2016-Feb-01 07:33N 37°55' W 122°26'6 5.8
2016-Feb-01 06:32N 38°01' W 122°24'12 2.9
2016-Feb-01 02:23N 38°02' W 122°09'0 0.0
2016-Jan-31 09:29N 38°02' W 122°08'2 1.8
2016-Jan-31 08:32N 38°03' W 122°10'2 0.2
2016-Jan-30 23:23N 38°04' W 122°13'5 6.3
2016-Jan-30 22:33N 38°03' W 122°19'6 6.4
2016-Jan-30 21:33N 37°59' W 122°26'5 5.2
2016-Jan-30 20:33N 37°54' W 122°22'4 3.7
2016-Jan-30 19:33N 37°56' W 122°26'1111.0
2016-Jan-30 18:33N 38°04' W 122°16'1 1.2
2016-Jan-30 17:33N 38°03' W 122°17'3 3.4
2016-Jan-30 16:33N 38°02' W 122°21'1 0.0
2016-Jan-29 17:33N 38°03' W 122°20'8 8.0
2016-Jan-29 16:33N 37°56' W 122°25'2 1.8
2016-Jan-29 15:33N 37°54' W 122°24'7 7.1
2016-Jan-29 14:32N 38°01' W 122°22'9 0.6
2016-Jan-28 23:25N 38°03' W 122°11'5 1.2
2016-Jan-28 19:29N 38°06' W 122°15'0 0.0
2016-Jan-28 18:33N 38°06' W 122°15'8 1.9
2016-Jan-28 14:11N 38°03' W 122°05'6 2.9
2016-Jan-28 12:17N 38°04' W 122°12'3 0.1
2016-Jan-27 18:29N 38°03' W 122°16'6 6.2
2016-Jan-27 17:29N 38°02' W 122°08'3 3.4
2016-Jan-27 16:33N 38°03' W 122°12'  

Dump ship's entire track history